createdAt,value
2018-08-18T00:01:28.467Z,28.6
2018-08-18T00:11:27.564Z,31.3
2018-08-18T00:21:26.355Z,31.8
2018-08-18T00:31:27.102Z,31.6
2018-08-18T00:41:26.071Z,27.4
2018-08-18T00:51:26.360Z,35.1
2018-08-18T01:01:26.335Z,32.1
2018-08-18T01:11:27.473Z,31.6
2018-08-18T01:21:28.334Z,33.1
2018-08-18T01:31:26.756Z,33.5
2018-08-18T01:41:25.945Z,31.6
2018-08-18T01:51:26.510Z,34.5
2018-08-18T02:01:28.224Z,31.8
2018-08-18T02:11:26.216Z,34.9
2018-08-18T02:21:26.237Z,33.1
2018-08-18T02:31:26.709Z,34.9
2018-08-18T02:41:26.229Z,34.6
2018-08-18T02:51:26.745Z,33.3
2018-08-18T03:01:26.125Z,35.4
2018-08-18T03:11:28.375Z,31.7
2018-08-18T03:21:26.378Z,42.4
2018-08-18T03:31:27.305Z,35.4
2018-08-18T03:41:26.477Z,36.6
2018-08-18T03:51:27.210Z,37.2
2018-08-18T04:01:28.149Z,38.8
2018-08-18T04:11:26.876Z,37.0
2018-08-18T04:21:26.071Z,38.6
2018-08-18T04:31:26.846Z,34.6
2018-08-18T04:41:26.074Z,33.3
2018-08-18T04:51:26.034Z,35.4
2018-08-18T05:01:26.315Z,35.1
2018-08-18T05:11:26.521Z,36.7
2018-08-18T05:21:26.133Z,46.3
2018-08-18T05:31:26.105Z,35.6
2018-08-18T05:41:29.083Z,40.7
2018-08-18T05:51:26.011Z,34.7
2018-08-18T06:01:26.995Z,42.2
2018-08-18T06:11:27.055Z,42.8
2018-08-18T06:21:26.202Z,49.2
2018-08-18T06:31:27.769Z,52.1
2018-08-18T06:41:26.068Z,58.1
2018-08-18T06:51:25.708Z,58.0
2018-08-18T07:01:31.137Z,66.2
2018-08-18T07:11:26.092Z,68.7
2018-08-18T07:21:27.857Z,58.3
2018-08-18T07:31:26.341Z,51.7
2018-08-18T07:41:26.328Z,42.2
2018-08-18T07:51:26.835Z,46.9
2018-08-18T08:01:26.313Z,37.5
2018-08-18T08:11:28.151Z,24.4
2018-08-18T08:21:28.403Z,29.2
2018-08-18T08:31:32.302Z,24.8
2018-08-18T08:41:26.643Z,23.3
2018-08-18T08:51:32.068Z,26.1
2018-08-18T09:01:28.130Z,20.8
2018-08-18T09:11:31.896Z,22.3
2018-08-18T09:31:32.291Z,30.8
2018-08-18T09:41:31.726Z,36.9
2018-08-18T09:51:27.646Z,44.3
2018-08-18T10:01:32.986Z,37.0
2018-08-18T10:11:32.136Z,35.5
2018-08-18T10:21:27.117Z,36.8
2018-08-18T10:31:32.177Z,21.8
2018-08-18T10:41:32.214Z,33.2
2018-08-18T10:51:27.140Z,32.2
2018-08-18T11:01:26.618Z,29.9
2018-08-18T11:11:26.727Z,36.2
2018-08-18T11:21:25.923Z,18.4
2018-08-18T11:31:26.083Z,26.8
2018-08-18T11:41:26.778Z,20.3
2018-08-18T11:51:26.042Z,15.6
2018-08-18T12:01:26.093Z,22.9
2018-08-18T12:11:26.913Z,16.7
2018-08-18T12:21:29.634Z,17.6
2018-08-18T12:31:25.973Z,15.5
2018-08-18T12:41:26.985Z,16.2
2018-08-18T12:51:25.977Z,20.4
2018-08-18T13:01:25.962Z,18.9
2018-08-18T13:11:26.158Z,15.1
2018-08-18T13:21:27.214Z,20.9
2018-08-18T13:31:26.214Z,14.7
2018-08-18T13:41:26.510Z,16.9
2018-08-18T13:51:27.713Z,19.4
2018-08-18T14:01:25.734Z,16.0
2018-08-18T14:11:26.868Z,13.5
2018-08-18T14:21:26.441Z,10.8
2018-08-18T14:31:27.892Z,13.2
2018-08-18T14:41:26.166Z,14.2
2018-08-18T14:51:26.811Z,14.9
2018-08-18T15:01:26.666Z,14.1
2018-08-18T15:11:25.797Z,13.1
2018-08-18T15:21:27.853Z,18.6
2018-08-18T15:31:26.416Z,13.4
2018-08-18T15:41:27.279Z,13.0
2018-08-18T15:51:26.280Z,14.7
2018-08-18T16:01:26.902Z,10.5
2018-08-18T16:11:26.146Z,16.5
2018-08-18T16:21:26.798Z,14.4
2018-08-18T16:31:26.847Z,12.0
2018-08-18T16:41:26.565Z,47.7
2018-08-18T16:51:27.205Z,11.6
2018-08-18T17:01:26.737Z,14.1
2018-08-18T17:11:26.231Z,11.8
2018-08-18T17:21:26.956Z,14.8
2018-08-18T17:31:25.829Z,18.4
2018-08-18T17:41:26.406Z,15.8
2018-08-18T17:51:27.729Z,18.3
2018-08-18T18:01:26.048Z,14.1
2018-08-18T18:11:26.438Z,19.7
2018-08-18T18:21:26.262Z,16.5
2018-08-18T18:31:26.918Z,21.1
2018-08-18T18:41:26.297Z,19.7
2018-08-18T18:51:26.521Z,20.5
2018-08-18T19:01:28.938Z,27.6
2018-08-18T19:11:51.393Z,21.3
2018-08-18T19:21:25.683Z,21.0
2018-08-18T19:31:25.837Z,22.6
2018-08-18T19:41:25.881Z,25.8
2018-08-18T19:51:27.293Z,26.8
2018-08-18T20:01:27.300Z,26.0
2018-08-18T20:11:25.763Z,27.0
2018-08-18T20:21:25.983Z,24.8
2018-08-18T20:31:27.128Z,22.2
2018-08-18T20:41:26.114Z,25.2
2018-08-18T20:51:26.380Z,31.4
2018-08-18T21:01:26.469Z,33.3
2018-08-18T21:11:26.477Z,31.5
2018-08-18T21:21:27.428Z,33.9
2018-08-18T21:31:26.855Z,32.7
2018-08-18T21:41:26.023Z,35.0
2018-08-18T21:51:26.468Z,37.2
2018-08-18T22:01:26.488Z,35.8
2018-08-18T22:11:28.374Z,42.5
2018-08-18T22:21:26.786Z,36.5
2018-08-18T22:31:25.807Z,37.0
2018-08-18T22:41:27.227Z,44.7
2018-08-18T22:51:27.613Z,39.9
2018-08-18T23:01:27.368Z,45.6
2018-08-18T23:11:26.216Z,41.6
2018-08-18T23:21:26.754Z,45.4
2018-08-18T23:31:27.248Z,42.8
2018-08-18T23:41:26.243Z,37.6
2018-08-18T23:51:26.168Z,40.1
